sensor_id;sensor_type;location;lat;lon;timestamp;P1;durP1;ratioP1;P2;durP2;ratioP2
49614;SDS011;35517;45.272;9.984;2022-08-21T00:01:20;5.72;;;3.28;;
49614;SDS011;35517;45.272;9.984;2022-08-21T00:03:47;4.88;;;4.45;;
49614;SDS011;35517;45.272;9.984;2022-08-21T00:06:14;5.72;;;3.42;;
49614;SDS011;35517;45.272;9.984;2022-08-21T00:08:40;5.25;;;3.90;;
49614;SDS011;35517;45.272;9.984;2022-08-21T00:11:07;5.10;;;4.38;;
49614;SDS011;35517;45.272;9.984;2022-08-21T00:13:34;5.55;;;4.10;;
49614;SDS011;35517;45.272;9.984;2022-08-21T00:16:01;4.85;;;3.95;;
49614;SDS011;35517;45.272;9.984;2022-08-21T00:18:28;4.68;;;4.22;;
49614;SDS011;35517;45.272;9.984;2022-08-21T00:20:55;6.97;;;5.07;;
49614;SDS011;35517;45.272;9.984;2022-08-21T00:23:22;8.75;;;4.43;;
49614;SDS011;35517;45.272;9.984;2022-08-21T00:25:48;5.10;;;4.45;;
49614;SDS011;35517;45.272;9.984;2022-08-21T00:28:15;6.32;;;5.07;;
49614;SDS011;35517;45.272;9.984;2022-08-21T00:30:42;5.38;;;4.82;;
49614;SDS011;35517;45.272;9.984;2022-08-21T00:33:09;5.53;;;5.03;;
49614;SDS011;35517;45.272;9.984;2022-08-21T00:35:38;6.95;;;5.03;;
49614;SDS011;35517;45.272;9.984;2022-08-21T00:38:05;8.13;;;5.85;;
49614;SDS011;35517;45.272;9.984;2022-08-21T00:40:39;7.22;;;4.78;;
49614;SDS011;35517;45.272;9.984;2022-08-21T00:43:07;10.57;;;5.60;;
49614;SDS011;35517;45.272;9.984;2022-08-21T00:45:34;6.97;;;5.60;;
49614;SDS011;35517;45.272;9.984;2022-08-21T00:48:00;8.50;;;5.38;;
49614;SDS011;35517;45.272;9.984;2022-08-21T00:50:29;6.10;;;5.50;;
49614;SDS011;35517;45.272;9.984;2022-08-21T00:52:57;6.57;;;5.20;;
49614;SDS011;35517;45.272;9.984;2022-08-21T00:55:25;7.15;;;5.82;;
49614;SDS011;35517;45.272;9.984;2022-08-21T00:57:52;6.47;;;5.45;;
49614;SDS011;35517;45.272;9.984;2022-08-21T01:00:28;11.23;;;7.28;;
49614;SDS011;35517;45.272;9.984;2022-08-21T01:02:56;8.75;;;6.32;;
49614;SDS011;35517;45.272;9.984;2022-08-21T01:05:23;7.95;;;6.18;;
49614;SDS011;35517;45.272;9.984;2022-08-21T01:07:50;7.45;;;6.25;;
49614;SDS011;35517;45.272;9.984;2022-08-21T01:10:17;8.05;;;6.10;;
49614;SDS011;35517;45.272;9.984;2022-08-21T01:12:44;8.65;;;7.07;;
49614;SDS011;35517;45.272;9.984;2022-08-21T01:15:10;8.93;;;5.97;;
49614;SDS011;35517;45.272;9.984;2022-08-21T01:17:38;13.18;;;6.47;;
49614;SDS011;35517;45.272;9.984;2022-08-21T01:20:06;12.48;;;6.68;;
49614;SDS011;35517;45.272;9.984;2022-08-21T01:22:33;10.90;;;7.50;;
49614;SDS011;35517;45.272;9.984;2022-08-21T01:25:00;8.95;;;6.78;;
49614;SDS011;35517;45.272;9.984;2022-08-21T01:27:26;7.68;;;6.85;;
49614;SDS011;35517;45.272;9.984;2022-08-21T01:29:54;8.38;;;7.45;;
49614;SDS011;35517;45.272;9.984;2022-08-21T01:32:22;8.32;;;7.38;;
49614;SDS011;35517;45.272;9.984;2022-08-21T01:34:49;8.35;;;7.57;;
49614;SDS011;35517;45.272;9.984;2022-08-21T01:37:17;8.38;;;7.40;;
49614;SDS011;35517;45.272;9.984;2022-08-21T01:39:45;9.00;;;7.28;;
49614;SDS011;35517;45.272;9.984;2022-08-21T01:42:12;10.90;;;6.43;;
49614;SDS011;35517;45.272;9.984;2022-08-21T01:44:38;8.48;;;7.03;;
49614;SDS011;35517;45.272;9.984;2022-08-21T01:47:07;10.35;;;7.00;;
49614;SDS011;35517;45.272;9.984;2022-08-21T01:49:35;9.07;;;6.78;;
49614;SDS011;35517;45.272;9.984;2022-08-21T01:52:02;8.27;;;7.38;;
49614;SDS011;35517;45.272;9.984;2022-08-21T01:54:29;9.80;;;7.45;;
49614;SDS011;35517;45.272;9.984;2022-08-21T01:56:56;8.07;;;7.38;;
49614;SDS011;35517;45.272;9.984;2022-08-21T01:59:24;7.05;;;6.20;;
49614;SDS011;35517;45.272;9.984;2022-08-21T02:01:51;8.40;;;6.43;;
49614;SDS011;35517;45.272;9.984;2022-08-21T02:04:19;8.82;;;7.03;;
49614;SDS011;35517;45.272;9.984;2022-08-21T02:06:47;9.02;;;6.60;;
49614;SDS011;35517;45.272;9.984;2022-08-21T02:09:14;10.60;;;7.20;;
49614;SDS011;35517;45.272;9.984;2022-08-21T02:11:40;7.68;;;6.97;;
49614;SDS011;35517;45.272;9.984;2022-08-21T02:14:07;8.73;;;7.00;;
49614;SDS011;35517;45.272;9.984;2022-08-21T02:16:35;9.30;;;7.07;;
49614;SDS011;35517;45.272;9.984;2022-08-21T02:19:01;10.98;;;7.63;;
49614;SDS011;35517;45.272;9.984;2022-08-21T02:21:28;8.15;;;7.32;;
49614;SDS011;35517;45.272;9.984;2022-08-21T02:23:55;13.38;;;9.38;;
49614;SDS011;35517;45.272;9.984;2022-08-21T02:26:21;9.02;;;8.10;;
49614;SDS011;35517;45.272;9.984;2022-08-21T02:28:48;11.75;;;8.80;;
49614;SDS011;35517;45.272;9.984;2022-08-21T02:31:14;10.57;;;9.02;;
49614;SDS011;35517;45.272;9.984;2022-08-21T02:33:41;11.25;;;8.77;;
49614;SDS011;35517;45.272;9.984;2022-08-21T02:36:08;10.10;;;8.55;;
49614;SDS011;35517;45.272;9.984;2022-08-21T02:38:35;12.02;;;9.05;;
49614;SDS011;35517;45.272;9.984;2022-08-21T02:41:05;10.90;;;9.38;;
49614;SDS011;35517;45.272;9.984;2022-08-21T02:43:33;10.57;;;9.48;;
49614;SDS011;35517;45.272;9.984;2022-08-21T02:46:02;10.52;;;8.13;;
49614;SDS011;35517;45.272;9.984;2022-08-21T02:48:29;15.10;;;9.38;;
49614;SDS011;35517;45.272;9.984;2022-08-21T02:51:04;13.68;;;9.25;;
49614;SDS011;35517;45.272;9.984;2022-08-21T02:53:31;12.85;;;8.93;;
49614;SDS011;35517;45.272;9.984;2022-08-21T02:55:58;12.23;;;8.43;;
49614;SDS011;35517;45.272;9.984;2022-08-21T02:58:27;12.35;;;9.85;;
49614;SDS011;35517;45.272;9.984;2022-08-21T03:00:54;10.88;;;8.32;;
49614;SDS011;35517;45.272;9.984;2022-08-21T03:03:20;24.73;;;15.38;;
49614;SDS011;35517;45.272;9.984;2022-08-21T03:05:48;12.27;;;9.18;;
49614;SDS011;35517;45.272;9.984;2022-08-21T03:08:15;10.68;;;9.57;;
49614;SDS011;35517;45.272;9.984;2022-08-21T03:10:43;12.55;;;8.40;;
49614;SDS011;35517;45.272;9.984;2022-08-21T03:13:11;10.40;;;8.90;;
49614;SDS011;35517;45.272;9.984;2022-08-21T03:15:38;11.55;;;8.63;;
49614;SDS011;35517;45.272;9.984;2022-08-21T03:18:05;11.70;;;8.88;;
49614;SDS011;35517;45.272;9.984;2022-08-21T03:20:33;13.52;;;9.55;;
49614;SDS011;35517;45.272;9.984;2022-08-21T03:23:00;11.95;;;9.00;;
49614;SDS011;35517;45.272;9.984;2022-08-21T03:25:27;10.48;;;9.30;;
49614;SDS011;35517;45.272;9.984;2022-08-21T03:27:54;13.13;;;9.10;;
49614;SDS011;35517;45.272;9.984;2022-08-21T03:30:20;9.65;;;8.65;;
49614;SDS011;35517;45.272;9.984;2022-08-21T03:32:47;13.80;;;10.02;;
49614;SDS011;35517;45.272;9.984;2022-08-21T03:35:14;10.43;;;9.20;;
49614;SDS011;35517;45.272;9.984;2022-08-21T03:37:41;9.55;;;8.65;;
49614;SDS011;35517;45.272;9.984;2022-08-21T03:40:08;10.07;;;8.60;;
49614;SDS011;35517;45.272;9.984;2022-08-21T03:42:35;16.55;;;10.18;;
49614;SDS011;35517;45.272;9.984;2022-08-21T03:45:02;11.40;;;9.40;;
49614;SDS011;35517;45.272;9.984;2022-08-21T03:47:28;11.13;;;9.43;;
49614;SDS011;35517;45.272;9.984;2022-08-21T03:49:55;11.35;;;10.23;;
49614;SDS011;35517;45.272;9.984;2022-08-21T03:52:22;12.27;;;9.68;;
49614;SDS011;35517;45.272;9.984;2022-08-21T03:54:48;15.93;;;10.27;;
49614;SDS011;35517;45.272;9.984;2022-08-21T03:57:16;15.18;;;9.82;;
49614;SDS011;35517;45.272;9.984;2022-08-21T03:59:42;10.63;;;9.50;;
49614;SDS011;35517;45.272;9.984;2022-08-21T04:02:10;9.93;;;8.98;;
49614;SDS011;35517;45.272;9.984;2022-08-21T04:04:36;14.43;;;10.43;;
49614;SDS011;35517;45.272;9.984;2022-08-21T04:07:03;9.57;;;8.68;;
49614;SDS011;35517;45.272;9.984;2022-08-21T04:09:30;14.30;;;9.45;;
49614;SDS011;35517;45.272;9.984;2022-08-21T04:11:57;10.25;;;8.40;;
49614;SDS011;35517;45.272;9.984;2022-08-21T04:14:25;12.02;;;9.20;;
49614;SDS011;35517;45.272;9.984;2022-08-21T04:16:52;11.43;;;9.23;;
49614;SDS011;35517;45.272;9.984;2022-08-21T04:19:18;10.38;;;9.07;;
49614;SDS011;35517;45.272;9.984;2022-08-21T04:21:45;11.32;;;10.13;;
49614;SDS011;35517;45.272;9.984;2022-08-21T04:24:11;15.15;;;10.18;;
49614;SDS011;35517;45.272;9.984;2022-08-21T04:26:38;13.10;;;10.15;;
49614;SDS011;35517;45.272;9.984;2022-08-21T04:29:05;11.43;;;10.32;;
49614;SDS011;35517;45.272;9.984;2022-08-21T04:31:35;12.70;;;9.25;;
49614;SDS011;35517;45.272;9.984;2022-08-21T04:34:05;13.88;;;10.60;;
49614;SDS011;35517;45.272;9.984;2022-08-21T04:36:32;10.35;;;9.45;;
49614;SDS011;35517;45.272;9.984;2022-08-21T04:38:59;10.98;;;9.90;;
49614;SDS011;35517;45.272;9.984;2022-08-21T04:41:25;11.60;;;10.48;;
49614;SDS011;35517;45.272;9.984;2022-08-21T04:43:52;11.93;;;9.82;;
49614;SDS011;35517;45.272;9.984;2022-08-21T04:46:21;11.50;;;9.82;;
49614;SDS011;35517;45.272;9.984;2022-08-21T04:48:47;11.63;;;10.30;;
49614;SDS011;35517;45.272;9.984;2022-08-21T04:51:18;10.45;;;9.25;;
49614;SDS011;35517;45.272;9.984;2022-08-21T04:53:47;11.48;;;9.07;;
49614;SDS011;35517;45.272;9.984;2022-08-21T04:56:24;12.05;;;9.23;;
49614;SDS011;35517;45.272;9.984;2022-08-21T04:58:53;10.57;;;9.48;;
49614;SDS011;35517;45.272;9.984;2022-08-21T05:01:22;10.90;;;9.35;;
49614;SDS011;35517;45.272;9.984;2022-08-21T05:03:50;17.80;;;9.70;;
49614;SDS011;35517;45.272;9.984;2022-08-21T05:06:18;16.63;;;9.80;;
49614;SDS011;35517;45.272;9.984;2022-08-21T05:08:47;15.75;;;10.85;;
49614;SDS011;35517;45.272;9.984;2022-08-21T05:11:15;15.95;;;9.93;;
49614;SDS011;35517;45.272;9.984;2022-08-21T05:13:41;10.10;;;9.05;;
49614;SDS011;35517;45.272;9.984;2022-08-21T05:16:08;13.23;;;8.45;;
49614;SDS011;35517;45.272;9.984;2022-08-21T05:18:35;10.45;;;8.18;;
49614;SDS011;35517;45.272;9.984;2022-08-21T05:21:02;10.80;;;8.00;;
49614;SDS011;35517;45.272;9.984;2022-08-21T05:23:28;8.70;;;7.43;;
49614;SDS011;35517;45.272;9.984;2022-08-21T05:25:55;10.68;;;8.40;;
49614;SDS011;35517;45.272;9.984;2022-08-21T05:28:22;8.55;;;7.10;;
49614;SDS011;35517;45.272;9.984;2022-08-21T05:30:49;9.63;;;8.07;;
49614;SDS011;35517;45.272;9.984;2022-08-21T05:33:15;8.38;;;6.65;;
49614;SDS011;35517;45.272;9.984;2022-08-21T05:35:42;7.88;;;6.75;;
49614;SDS011;35517;45.272;9.984;2022-08-21T05:38:08;7.88;;;7.13;;
49614;SDS011;35517;45.272;9.984;2022-08-21T05:40:35;7.55;;;6.75;;
49614;SDS011;35517;45.272;9.984;2022-08-21T05:43:02;7.43;;;6.57;;
49614;SDS011;35517;45.272;9.984;2022-08-21T05:45:30;9.98;;;8.15;;
49614;SDS011;35517;45.272;9.984;2022-08-21T05:47:56;10.02;;;8.80;;
49614;SDS011;35517;45.272;9.984;2022-08-21T05:50:23;9.32;;;7.43;;
49614;SDS011;35517;45.272;9.984;2022-08-21T05:52:50;10.07;;;7.55;;
49614;SDS011;35517;45.272;9.984;2022-08-21T05:55:16;14.48;;;7.75;;
49614;SDS011;35517;45.272;9.984;2022-08-21T05:57:43;7.97;;;6.40;;
49614;SDS011;35517;45.272;9.984;2022-08-21T06:00:09;7.53;;;6.72;;
49614;SDS011;35517;45.272;9.984;2022-08-21T06:02:39;6.88;;;6.28;;
49614;SDS011;35517;45.272;9.984;2022-08-21T06:05:06;11.60;;;6.82;;
49614;SDS011;35517;45.272;9.984;2022-08-21T06:07:33;12.82;;;6.25;;
49614;SDS011;35517;45.272;9.984;2022-08-21T06:09:59;8.57;;;6.40;;
49614;SDS011;35517;45.272;9.984;2022-08-21T06:12:26;9.32;;;5.80;;
49614;SDS011;35517;45.272;9.984;2022-08-21T06:14:53;6.30;;;5.80;;
49614;SDS011;35517;45.272;9.984;2022-08-21T06:17:19;7.68;;;5.93;;
49614;SDS011;35517;45.272;9.984;2022-08-21T06:19:50;8.20;;;5.63;;
49614;SDS011;35517;45.272;9.984;2022-08-21T06:22:16;11.00;;;7.17;;
49614;SDS011;35517;45.272;9.984;2022-08-21T06:24:43;7.35;;;6.15;;
49614;SDS011;35517;45.272;9.984;2022-08-21T06:27:10;9.98;;;5.53;;
49614;SDS011;35517;45.272;9.984;2022-08-21T06:29:36;8.52;;;5.78;;
49614;SDS011;35517;45.272;9.984;2022-08-21T06:32:03;8.02;;;6.38;;
49614;SDS011;35517;45.272;9.984;2022-08-21T06:34:35;9.52;;;6.85;;
49614;SDS011;35517;45.272;9.984;2022-08-21T06:37:03;7.03;;;5.77;;
49614;SDS011;35517;45.272;9.984;2022-08-21T06:39:30;6.18;;;5.57;;
49614;SDS011;35517;45.272;9.984;2022-08-21T06:41:57;7.35;;;5.20;;
49614;SDS011;35517;45.272;9.984;2022-08-21T06:44:27;5.80;;;5.30;;
49614;SDS011;35517;45.272;9.984;2022-08-21T06:46:54;9.38;;;5.75;;
49614;SDS011;35517;45.272;9.984;2022-08-21T06:49:20;5.13;;;4.65;;
49614;SDS011;35517;45.272;9.984;2022-08-21T06:51:47;5.28;;;3.95;;
49614;SDS011;35517;45.272;9.984;2022-08-21T06:54:14;5.47;;;4.82;;
49614;SDS011;35517;45.272;9.984;2022-08-21T06:56:40;4.30;;;3.92;;
49614;SDS011;35517;45.272;9.984;2022-08-21T06:59:07;7.97;;;4.93;;
49614;SDS011;35517;45.272;9.984;2022-08-21T07:01:33;4.65;;;4.13;;
49614;SDS011;35517;45.272;9.984;2022-08-21T07:04:00;4.68;;;4.28;;
49614;SDS011;35517;45.272;9.984;2022-08-21T07:06:27;5.22;;;4.38;;
49614;SDS011;35517;45.272;9.984;2022-08-21T07:08:53;7.10;;;5.00;;
49614;SDS011;35517;45.272;9.984;2022-08-21T07:11:21;5.63;;;5.13;;
49614;SDS011;35517;45.272;9.984;2022-08-21T07:13:48;4.70;;;4.30;;
49614;SDS011;35517;45.272;9.984;2022-08-21T07:16:18;7.72;;;5.05;;
49614;SDS011;35517;45.272;9.984;2022-08-21T07:18:44;5.40;;;4.93;;
49614;SDS011;35517;45.272;9.984;2022-08-21T07:21:11;9.48;;;5.50;;
49614;SDS011;35517;45.272;9.984;2022-08-21T07:23:39;4.80;;;4.40;;
49614;SDS011;35517;45.272;9.984;2022-08-21T07:26:06;6.22;;;4.20;;
49614;SDS011;35517;45.272;9.984;2022-08-21T07:28:33;6.90;;;3.88;;
49614;SDS011;35517;45.272;9.984;2022-08-21T07:31:01;7.95;;;4.35;;
49614;SDS011;35517;45.272;9.984;2022-08-21T07:33:29;5.57;;;3.42;;
49614;SDS011;35517;45.272;9.984;2022-08-21T07:35:56;5.03;;;3.67;;
49614;SDS011;35517;45.272;9.984;2022-08-21T07:38:23;7.22;;;3.20;;
49614;SDS011;35517;45.272;9.984;2022-08-21T07:40:50;3.28;;;2.55;;
49614;SDS011;35517;45.272;9.984;2022-08-21T07:43:17;2.58;;;2.35;;
49614;SDS011;35517;45.272;9.984;2022-08-21T07:45:44;2.65;;;2.45;;
49614;SDS011;35517;45.272;9.984;2022-08-21T07:48:11;4.43;;;2.92;;
49614;SDS011;35517;45.272;9.984;2022-08-21T07:50:38;4.00;;;2.35;;
49614;SDS011;35517;45.272;9.984;2022-08-21T07:53:06;3.67;;;2.92;;
49614;SDS011;35517;45.272;9.984;2022-08-21T07:55:32;5.63;;;3.15;;
49614;SDS011;35517;45.272;9.984;2022-08-21T07:57:59;3.33;;;2.67;;
49614;SDS011;35517;45.272;9.984;2022-08-21T08:00:26;3.40;;;2.60;;
49614;SDS011;35517;45.272;9.984;2022-08-21T08:02:54;4.32;;;2.60;;
49614;SDS011;35517;45.272;9.984;2022-08-21T08:05:22;2.90;;;2.70;;
49614;SDS011;35517;45.272;9.984;2022-08-21T08:07:49;3.42;;;2.33;;
49614;SDS011;35517;45.272;9.984;2022-08-21T08:10:16;4.80;;;2.65;;
49614;SDS011;35517;45.272;9.984;2022-08-21T08:12:43;4.07;;;3.20;;
49614;SDS011;35517;45.272;9.984;2022-08-21T08:15:12;4.15;;;2.45;;
49614;SDS011;35517;45.272;9.984;2022-08-21T08:17:38;4.55;;;3.03;;
49614;SDS011;35517;45.272;9.984;2022-08-21T08:20:06;2.92;;;2.53;;
49614;SDS011;35517;45.272;9.984;2022-08-21T08:22:33;4.40;;;2.65;;
49614;SDS011;35517;45.272;9.984;2022-08-21T08:25:00;5.97;;;3.42;;
49614;SDS011;35517;45.272;9.984;2022-08-21T08:27:27;3.45;;;2.72;;
49614;SDS011;35517;45.272;9.984;2022-08-21T08:29:54;3.72;;;3.28;;
49614;SDS011;35517;45.272;9.984;2022-08-21T08:32:20;3.72;;;2.65;;
49614;SDS011;35517;45.272;9.984;2022-08-21T08:34:48;7.28;;;2.58;;
49614;SDS011;35517;45.272;9.984;2022-08-21T08:37:17;4.68;;;3.03;;
49614;SDS011;35517;45.272;9.984;2022-08-21T08:39:44;3.30;;;3.03;;
49614;SDS011;35517;45.272;9.984;2022-08-21T08:42:13;3.97;;;2.75;;
49614;SDS011;35517;45.272;9.984;2022-08-21T08:44:43;3.42;;;2.92;;
49614;SDS011;35517;45.272;9.984;2022-08-21T08:49:40;4.65;;;2.50;;
49614;SDS011;35517;45.272;9.984;2022-08-21T08:52:19;3.00;;;2.53;;
49614;SDS011;35517;45.272;9.984;2022-08-21T08:54:51;3.10;;;2.80;;
49614;SDS011;35517;45.272;9.984;2022-08-21T08:57:22;3.13;;;2.60;;
49614;SDS011;35517;45.272;9.984;2022-08-21T08:59:51;3.15;;;2.80;;
49614;SDS011;35517;45.272;9.984;2022-08-21T09:02:18;4.03;;;2.67;;
49614;SDS011;35517;45.272;9.984;2022-08-21T09:04:45;4.60;;;2.72;;
49614;SDS011;35517;45.272;9.984;2022-08-21T09:15:06;8.48;;;2.10;;
49614;SDS011;35517;45.272;9.984;2022-08-21T09:27:48;1.45;;;1.10;;
49614;SDS011;35517;45.272;9.984;2022-08-21T09:30:16;3.33;;;1.02;;
49614;SDS011;35517;45.272;9.984;2022-08-21T09:32:45;1.65;;;0.90;;
49614;SDS011;35517;45.272;9.984;2022-08-21T09:35:13;2.78;;;0.77;;
49614;SDS011;35517;45.272;9.984;2022-08-21T09:40:28;3.25;;;1.15;;
49614;SDS011;35517;45.272;9.984;2022-08-21T09:42:57;3.58;;;1.20;;
49614;SDS011;35517;45.272;9.984;2022-08-21T09:45:24;3.10;;;1.00;;
49614;SDS011;35517;45.272;9.984;2022-08-21T09:47:51;0.88;;;0.88;;
49614;SDS011;35517;45.272;9.984;2022-08-21T09:50:25;2.05;;;0.65;;
49614;SDS011;35517;45.272;9.984;2022-08-21T09:52:56;2.45;;;0.60;;
49614;SDS011;35517;45.272;9.984;2022-08-21T09:58:39;2.80;;;1.27;;
49614;SDS011;35517;45.272;9.984;2022-08-21T10:01:06;2.00;;;0.77;;
49614;SDS011;35517;45.272;9.984;2022-08-21T10:03:39;1.17;;;0.73;;
49614;SDS011;35517;45.272;9.984;2022-08-21T10:06:06;0.80;;;0.70;;
49614;SDS011;35517;45.272;9.984;2022-08-21T10:08:38;4.20;;;0.93;;
49614;SDS011;35517;45.272;9.984;2022-08-21T10:11:06;1.88;;;0.57;;
49614;SDS011;35517;45.272;9.984;2022-08-21T10:13:37;0.93;;;0.55;;
49614;SDS011;35517;45.272;9.984;2022-08-21T10:16:08;3.70;;;0.82;;
49614;SDS011;35517;45.272;9.984;2022-08-21T10:23:49;2.17;;;1.05;;
49614;SDS011;35517;45.272;9.984;2022-08-21T10:31:43;2.38;;;1.20;;
49614;SDS011;35517;45.272;9.984;2022-08-21T10:36:52;4.35;;;1.75;;
49614;SDS011;35517;45.272;9.984;2022-08-21T10:39:27;2.08;;;0.95;;
49614;SDS011;35517;45.272;9.984;2022-08-21T10:47:15;1.98;;;1.88;;
49614;SDS011;35517;45.272;9.984;2022-08-21T10:50:06;2.58;;;1.95;;
49614;SDS011;35517;45.272;9.984;2022-08-21T10:52:53;1.38;;;1.15;;
49614;SDS011;35517;45.272;9.984;2022-08-21T10:55:25;1.50;;;1.30;;
49614;SDS011;35517;45.272;9.984;2022-08-21T11:00:23;5.60;;;1.50;;
49614;SDS011;35517;45.272;9.984;2022-08-21T11:07:57;3.20;;;1.80;;
49614;SDS011;35517;45.272;9.984;2022-08-21T11:10:33;7.22;;;2.97;;
49614;SDS011;35517;45.272;9.984;2022-08-21T11:13:08;1.63;;;1.30;;
49614;SDS011;35517;45.272;9.984;2022-08-21T11:20:43;6.05;;;1.40;;
49614;SDS011;35517;45.272;9.984;2022-08-21T11:23:23;4.35;;;1.63;;
49614;SDS011;35517;45.272;9.984;2022-08-21T11:25:59;5.35;;;2.13;;
49614;SDS011;35517;45.272;9.984;2022-08-21T11:28:28;5.38;;;2.55;;
49614;SDS011;35517;45.272;9.984;2022-08-21T11:36:11;5.72;;;2.20;;
49614;SDS011;35517;45.272;9.984;2022-08-21T11:38:41;5.82;;;2.40;;
49614;SDS011;35517;45.272;9.984;2022-08-21T11:43:45;2.75;;;2.30;;
49614;SDS011;35517;45.272;9.984;2022-08-21T11:51:32;2.75;;;2.20;;
49614;SDS011;35517;45.272;9.984;2022-08-21T11:54:05;1.73;;;1.52;;
49614;SDS011;35517;45.272;9.984;2022-08-21T11:56:35;4.20;;;1.95;;
49614;SDS011;35517;45.272;9.984;2022-08-21T11:59:11;3.13;;;2.10;;
49614;SDS011;35517;45.272;9.984;2022-08-21T12:01:41;3.13;;;1.92;;
49614;SDS011;35517;45.272;9.984;2022-08-21T12:04:17;4.30;;;2.10;;
49614;SDS011;35517;45.272;9.984;2022-08-21T12:06:44;2.70;;;1.27;;
49614;SDS011;35517;45.272;9.984;2022-08-21T12:09:28;1.55;;;1.02;;
49614;SDS011;35517;45.272;9.984;2022-08-21T12:12:05;2.15;;;0.98;;
49614;SDS011;35517;45.272;9.984;2022-08-21T12:14:37;7.75;;;1.33;;
49614;SDS011;35517;45.272;9.984;2022-08-21T12:17:05;2.55;;;1.27;;
49614;SDS011;35517;45.272;9.984;2022-08-21T12:19:32;2.60;;;1.63;;
49614;SDS011;35517;45.272;9.984;2022-08-21T12:24:45;3.65;;;1.35;;
49614;SDS011;35517;45.272;9.984;2022-08-21T12:29:58;1.60;;;0.80;;
49614;SDS011;35517;45.272;9.984;2022-08-21T12:32:30;0.70;;;0.68;;
49614;SDS011;35517;45.272;9.984;2022-08-21T12:40:40;2.08;;;1.00;;
49614;SDS011;35517;45.272;9.984;2022-08-21T12:43:11;1.35;;;0.50;;
49614;SDS011;35517;45.272;9.984;2022-08-21T12:45:50;1.63;;;0.90;;
49614;SDS011;35517;45.272;9.984;2022-08-21T12:48:26;1.13;;;0.93;;
49614;SDS011;35517;45.272;9.984;2022-08-21T12:50:56;2.35;;;0.70;;
49614;SDS011;35517;45.272;9.984;2022-08-21T12:53:38;2.55;;;0.73;;
49614;SDS011;35517;45.272;9.984;2022-08-21T12:56:11;0.63;;;0.55;;
49614;SDS011;35517;45.272;9.984;2022-08-21T12:58:45;0.90;;;0.73;;
49614;SDS011;35517;45.272;9.984;2022-08-21T13:03:42;6.43;;;0.50;;
49614;SDS011;35517;45.272;9.984;2022-08-21T13:06:13;0.70;;;0.50;;
49614;SDS011;35517;45.272;9.984;2022-08-21T13:11:09;3.00;;;0.52;;
49614;SDS011;35517;45.272;9.984;2022-08-21T13:13:40;0.70;;;0.43;;
49614;SDS011;35517;45.272;9.984;2022-08-21T13:16:07;6.90;;;0.40;;
49614;SDS011;35517;45.272;9.984;2022-08-21T13:21:17;1.42;;;0.65;;
49614;SDS011;35517;45.272;9.984;2022-08-21T13:23:44;2.05;;;0.70;;
49614;SDS011;35517;45.272;9.984;2022-08-21T13:26:18;1.65;;;0.77;;
49614;SDS011;35517;45.272;9.984;2022-08-21T13:28:45;1.13;;;0.80;;
49614;SDS011;35517;45.272;9.984;2022-08-21T13:31:15;2.00;;;0.70;;
49614;SDS011;35517;45.272;9.984;2022-08-21T13:33:43;1.33;;;0.55;;
49614;SDS011;35517;45.272;9.984;2022-08-21T13:36:11;1.17;;;0.35;;
49614;SDS011;35517;45.272;9.984;2022-08-21T13:38:41;0.70;;;0.43;;
49614;SDS011;35517;45.272;9.984;2022-08-21T13:43:45;2.05;;;0.70;;
49614;SDS011;35517;45.272;9.984;2022-08-21T13:46:13;1.05;;;0.80;;
49614;SDS011;35517;45.272;9.984;2022-08-21T13:48:40;0.50;;;0.43;;
49614;SDS011;35517;45.272;9.984;2022-08-21T13:51:08;0.80;;;0.50;;
49614;SDS011;35517;45.272;9.984;2022-08-21T13:56:20;0.75;;;0.40;;
49614;SDS011;35517;45.272;9.984;2022-08-21T13:58:47;0.82;;;0.60;;
49614;SDS011;35517;45.272;9.984;2022-08-21T14:01:21;0.95;;;0.70;;
49614;SDS011;35517;45.272;9.984;2022-08-21T14:03:49;2.65;;;0.50;;
49614;SDS011;35517;45.272;9.984;2022-08-21T14:06:18;4.78;;;0.30;;
49614;SDS011;35517;45.272;9.984;2022-08-21T14:08:50;1.67;;;0.40;;
49614;SDS011;35517;45.272;9.984;2022-08-21T14:11:17;0.52;;;0.40;;
49614;SDS011;35517;45.272;9.984;2022-08-21T14:13:45;1.23;;;0.45;;
49614;SDS011;35517;45.272;9.984;2022-08-21T14:16:16;6.13;;;0.55;;
49614;SDS011;35517;45.272;9.984;2022-08-21T14:18:44;0.90;;;0.50;;
49614;SDS011;35517;45.272;9.984;2022-08-21T14:21:10;2.25;;;0.45;;
49614;SDS011;35517;45.272;9.984;2022-08-21T14:23:39;3.10;;;0.80;;
49614;SDS011;35517;45.272;9.984;2022-08-21T14:26:07;0.90;;;0.65;;
49614;SDS011;35517;45.272;9.984;2022-08-21T14:28:34;1.65;;;0.55;;
49614;SDS011;35517;45.272;9.984;2022-08-21T14:31:11;0.77;;;0.43;;
49614;SDS011;35517;45.272;9.984;2022-08-21T14:33:38;1.85;;;0.50;;
49614;SDS011;35517;45.272;9.984;2022-08-21T14:36:05;1.23;;;0.47;;
49614;SDS011;35517;45.272;9.984;2022-08-21T14:38:31;0.70;;;0.30;;
49614;SDS011;35517;45.272;9.984;2022-08-21T14:41:21;1.20;;;0.35;;
49614;SDS011;35517;45.272;9.984;2022-08-21T14:43:48;1.42;;;0.50;;
49614;SDS011;35517;45.272;9.984;2022-08-21T14:46:21;1.25;;;0.50;;
49614;SDS011;35517;45.272;9.984;2022-08-21T14:48:48;1.75;;;0.30;;
49614;SDS011;35517;45.272;9.984;2022-08-21T14:51:16;8.82;;;0.60;;
49614;SDS011;35517;45.272;9.984;2022-08-21T14:53:43;1.88;;;0.55;;
49614;SDS011;35517;45.272;9.984;2022-08-21T14:56:10;1.02;;;0.40;;
49614;SDS011;35517;45.272;9.984;2022-08-21T14:58:43;1.92;;;0.40;;
49614;SDS011;35517;45.272;9.984;2022-08-21T15:01:10;1.03;;;0.60;;
49614;SDS011;35517;45.272;9.984;2022-08-21T15:03:38;0.45;;;0.30;;
49614;SDS011;35517;45.272;9.984;2022-08-21T15:06:05;2.00;;;0.40;;
49614;SDS011;35517;45.272;9.984;2022-08-21T15:08:32;1.95;;;0.30;;
49614;SDS011;35517;45.272;9.984;2022-08-21T15:10:59;0.35;;;0.22;;
49614;SDS011;35517;45.272;9.984;2022-08-21T15:13:26;0.90;;;0.40;;
49614;SDS011;35517;45.272;9.984;2022-08-21T15:15:53;2.88;;;0.50;;
49614;SDS011;35517;45.272;9.984;2022-08-21T15:18:22;1.30;;;0.55;;
49614;SDS011;35517;45.272;9.984;2022-08-21T15:20:49;3.65;;;0.90;;
49614;SDS011;35517;45.272;9.984;2022-08-21T15:23:15;1.20;;;0.40;;
49614;SDS011;35517;45.272;9.984;2022-08-21T15:25:43;0.90;;;0.47;;
49614;SDS011;35517;45.272;9.984;2022-08-21T15:28:10;1.77;;;0.50;;
49614;SDS011;35517;45.272;9.984;2022-08-21T15:30:38;0.30;;;0.30;;
49614;SDS011;35517;45.272;9.984;2022-08-21T15:33:04;0.32;;;0.32;;
49614;SDS011;35517;45.272;9.984;2022-08-21T15:35:31;0.30;;;0.25;;
49614;SDS011;35517;45.272;9.984;2022-08-21T15:37:58;0.63;;;0.32;;
49614;SDS011;35517;45.272;9.984;2022-08-21T15:40:25;0.68;;;0.50;;
49614;SDS011;35517;45.272;9.984;2022-08-21T15:42:52;0.30;;;0.30;;
49614;SDS011;35517;45.272;9.984;2022-08-21T15:45:21;1.63;;;0.60;;
49614;SDS011;35517;45.272;9.984;2022-08-21T15:47:48;1.60;;;0.40;;
49614;SDS011;35517;45.272;9.984;2022-08-21T15:50:15;2.15;;;0.40;;
49614;SDS011;35517;45.272;9.984;2022-08-21T15:52:42;1.05;;;0.60;;
49614;SDS011;35517;45.272;9.984;2022-08-21T15:55:09;7.03;;;1.60;;
49614;SDS011;35517;45.272;9.984;2022-08-21T15:57:36;1.95;;;0.30;;
49614;SDS011;35517;45.272;9.984;2022-08-21T16:00:06;1.20;;;0.43;;
49614;SDS011;35517;45.272;9.984;2022-08-21T16:02:38;0.35;;;0.25;;
49614;SDS011;35517;45.272;9.984;2022-08-21T16:05:05;2.63;;;0.50;;
49614;SDS011;35517;45.272;9.984;2022-08-21T16:07:32;1.58;;;0.40;;
49614;SDS011;35517;45.272;9.984;2022-08-21T16:09:59;4.50;;;0.40;;
49614;SDS011;35517;45.272;9.984;2022-08-21T16:12:42;2.80;;;0.20;;
49614;SDS011;35517;45.272;9.984;2022-08-21T16:15:14;4.43;;;0.20;;
49614;SDS011;35517;45.272;9.984;2022-08-21T16:17:41;0.63;;;0.30;;
49614;SDS011;35517;45.272;9.984;2022-08-21T16:20:11;0.55;;;0.35;;
49614;SDS011;35517;45.272;9.984;2022-08-21T16:22:38;0.60;;;0.40;;
49614;SDS011;35517;45.272;9.984;2022-08-21T16:25:05;0.30;;;0.22;;